DuBois Regional Airport
KDUJ : now visible

Airfield :











YOU CAN JOIN US ON...

 
LOGIN :

Register | Disclaimer

   EN    FR    IT 

 









Legend :    VFR   Marginal VFR   IFR   Intensive IFR   Very Intensive IFR
Visi :
Ceiling :
>= 8 km
>= 3000ft
5 to 8 km
1000 to 3000 ft
1500m to 5 km
500 to 1000 ft
800 to 1500m
200 to 500 ft
< 800m
< 200 ft
Symbols :   Thunderstorms  Fog  Heavy snow  Heavy precipitations  Wind > 20 kt






- Airport Elevation : 1817 ft
- IATA code : DUJ


KDUJ - DuBois Regional

CURRENT METAR :
  • 192353Z AUTO 30009G17KT 10SM CLR 14/08 A2996 RMK AO2 SLP145 60001 T01390078 10167 20139 53011

EXPIRED METARs :
  • 192253Z AUTO 27009G17KT 10SM FEW026 BKN034 15/09 A2995 RMK AO2 SLP140 T01500089
  • 192222Z AUTO 28010KT 10SM SCT024 BKN030 BKN055 16/09 A2994 RMK AO2 T01560094
  • 192211Z AUTO 29012KT 10SM BKN024 BKN049 OVC055 16/09 A2993 RMK AO2 T01610094
  • 192153Z AUTO 25008KT 10SM SCT045 OVC055 16/10 A2992 RMK AO2 SLP132 T01560100
  • 192131Z AUTO 24007KT 10SM FEW026 OVC043 16/10 A2992 RMK AO2 T01610100
  • 192053Z AUTO 27015G23KT 10SM BKN025 BKN034 OVC042 16/10 A2993 RMK AO2 SLP131 60001 T01610100 53006
  • 192032Z AUTO 28009KT 10SM FEW025 BKN032 OVC039 16/11 A2992 RMK AO2 T01610111
  • 191953Z AUTO 27011G17KT 10SM FEW013 BKN027 OVC055 17/13 A2991 RMK AO2 RAB15E32 SLP125 P0001 T01670128

TAF KDUJ
Valid from the 20 at 00:00 until the 21 at 00:00 UTC


192320Z 2000/2024 29005KT P6SM BKN150
FM201400 27015G25KT P6SM BKN040
KZOB FIR / North America



MET'MAP, your aeronautical weather chart ! - Copyright ORBIFLY December 2007 - Disclaimer

ORBIFLY MET'MAP TEAM :

Programming & Development : Alexandra Zaïnal
Original concept : Baudouin d'Aumeries
Technical & hardware support : Manuel Goepfert
Assistance : Marc-Olivier Méhu




SOURCES & CREDITS :

   NOAA       Earth
Advisory